Terminal Aerodrome Forecast
Issued by NWS

Home | Current Version | Previous Version | Text Only | Print | Product List | Glossary On
Versions: 1 2 3 4 5 6 7 8 9 10 11 12 13 14 15 16 17 18 19 20 21
332
FTUS43 KAPX 291120
TAFAPN
TAF
KAPN 291120Z 2912/3012 33009KT P6SM SCT030 BKN100
     FM291400 35010KT P6SM SCT250
     FM300400 02008KT P6SM -RA BKN050 OVC100
     FM300800 06010KT 6SM RA BKN015 OVC025=

USA.gov is the U.S. government's official web portal to all federal, state and local government web resources and services.